createdAt,value
2018-08-24T00:01:04.069Z,0
2018-08-24T00:02:14.191Z,0
2018-08-24T00:03:23.220Z,0
2018-08-24T00:04:32.799Z,0
2018-08-24T00:05:42.375Z,0
2018-08-24T00:06:52.498Z,0
2018-08-24T00:08:01.800Z,0
2018-08-24T00:09:11.909Z,0
2018-08-24T00:10:22.022Z,0
2018-08-24T00:11:31.910Z,0
2018-08-24T00:12:41.769Z,0
2018-08-24T00:13:51.071Z,0
2018-08-24T00:15:00.913Z,0
2018-08-24T00:16:10.485Z,0
2018-08-24T00:17:20.325Z,0
2018-08-24T00:18:30.429Z,0
2018-08-24T00:19:40.275Z,0
2018-08-24T00:20:49.849Z,0
2018-08-24T00:21:59.420Z,0
2018-08-24T00:23:08.991Z,0
2018-08-24T00:24:19.104Z,0
2018-08-24T00:25:28.957Z,0
2018-08-24T00:26:38.801Z,0
2018-08-24T00:27:48.370Z,0
2018-08-24T00:28:58.214Z,0
2018-08-24T00:30:07.516Z,0
2018-08-24T00:31:17.359Z,0
2018-08-24T00:32:27.205Z,0
2018-08-24T00:33:36.780Z,0
2018-08-24T00:34:46.889Z,0
2018-08-24T00:35:56.458Z,0
2018-08-24T00:37:06.025Z,0
2018-08-24T00:38:22.462Z,0
2018-08-24T00:39:32.580Z,0
2018-08-24T00:40:42.738Z,0
2018-08-24T00:41:52.851Z,0
2018-08-24T00:43:02.698Z,0
2018-08-24T00:44:12.273Z,0
2018-08-24T00:45:21.848Z,0
2018-08-24T00:46:31.685Z,0
2018-08-24T00:47:41.796Z,0
2018-08-24T00:48:51.633Z,0
2018-08-24T00:50:00.934Z,0
2018-08-24T00:51:10.242Z,0
2018-08-24T00:52:19.813Z,0
2018-08-24T00:53:29.386Z,0
2018-08-24T00:54:39.499Z,0
2018-08-24T00:55:49.335Z,0
2018-08-24T00:56:59.446Z,0
2018-08-24T00:58:09.017Z,0
2018-08-24T00:59:18.317Z,0
2018-08-24T01:00:27.622Z,0
2018-08-24T01:01:37.468Z,0
2018-08-24T01:02:47.044Z,0
2018-08-24T01:03:56.887Z,0
2018-08-24T01:05:06.730Z,0
2018-08-24T01:06:16.038Z,0
2018-08-24T01:07:26.190Z,0
2018-08-24T01:08:36.348Z,0
2018-08-24T01:09:46.196Z,0
2018-08-24T01:10:55.764Z,0
2018-08-24T01:12:05.879Z,0
2018-08-24T01:13:15.731Z,0
2018-08-24T01:14:25.836Z,0
2018-08-24T01:15:35.677Z,0
2018-08-24T01:16:44.712Z,0
2018-08-24T01:17:54.558Z,0
2018-08-24T01:19:04.130Z,0
2018-08-24T01:20:13.704Z,0
2018-08-24T01:21:23.821Z,0
2018-08-24T01:22:33.117Z,0
2018-08-24T01:23:42.684Z,0
2018-08-24T01:24:52.525Z,0
2018-08-24T01:26:02.366Z,0
2018-08-24T01:27:11.947Z,0
2018-08-24T01:28:21.785Z,0
2018-08-24T01:29:31.358Z,0
2018-08-24T01:30:41.198Z,0
2018-08-24T01:31:51.034Z,0
2018-08-24T01:33:00.930Z,0
2018-08-24T01:34:10.506Z,0
2018-08-24T01:35:20.076Z,0
2018-08-24T01:36:30.183Z,0
2018-08-24T01:37:39.751Z,0
2018-08-24T01:38:49.857Z,0
2018-08-24T01:39:59.425Z,0
2018-08-24T01:41:08.727Z,0
2018-08-24T01:42:18.565Z,0
2018-08-24T01:43:28.666Z,0
2018-08-24T01:44:38.774Z,0
2018-08-24T01:45:48.884Z,0
2018-08-24T01:46:58.459Z,0
2018-08-24T01:48:08.025Z,0
2018-08-24T01:49:17.867Z,0
2018-08-24T01:50:27.434Z,0
2018-08-24T01:51:37.004Z,0
2018-08-24T01:52:47.108Z,0
2018-08-24T01:53:56.947Z,0
2018-08-24T01:55:06.514Z,0
2018-08-24T01:56:16.624Z,0
2018-08-24T01:57:26.461Z,0
2018-08-24T01:58:36.295Z,0
2018-08-24T01:59:45.865Z,0
2018-08-24T02:00:55.429Z,0
2018-08-24T02:02:05.320Z,0
2018-08-24T02:03:15.190Z,0
2018-08-24T02:04:24.759Z,0
2018-08-24T02:05:34.603Z,0
2018-08-24T02:06:44.439Z,0
2018-08-24T02:07:54.550Z,0
2018-08-24T02:09:04.122Z,0
2018-08-24T02:10:13.692Z,0
2018-08-24T02:11:23.796Z,0
2018-08-24T02:12:32.829Z,0
2018-08-24T02:13:42.403Z,0
2018-08-24T02:14:52.517Z,0
2018-08-24T02:16:01.563Z,0
2018-08-24T02:17:11.132Z,0
2018-08-24T02:18:21.243Z,0
2018-08-24T02:19:30.809Z,0
2018-08-24T02:20:40.380Z,0
2018-08-24T02:21:50.232Z,0
2018-08-24T02:23:00.069Z,0
2018-08-24T02:24:09.375Z,0
2018-08-24T02:25:19.481Z,0
2018-08-24T02:26:29.320Z,0
2018-08-24T02:27:39.164Z,0
2018-08-24T02:28:49.276Z,0
2018-08-24T02:29:59.381Z,0
2018-08-24T02:31:08.795Z,0
2018-08-24T02:32:18.700Z,0
2018-08-24T02:33:28.806Z,0
2018-08-24T02:34:38.379Z,0
2018-08-24T02:35:47.953Z,0
2018-08-24T02:36:57.522Z,0
2018-08-24T02:38:06.822Z,0
2018-08-24T02:39:16.677Z,0
2018-08-24T02:40:26.524Z,0
2018-08-24T02:41:35.820Z,0
2018-08-24T02:42:45.392Z,0
2018-08-24T02:43:55.230Z,0
2018-08-24T02:45:05.375Z,0
2018-08-24T02:46:15.696Z,0
2018-08-24T02:47:25.538Z,0
2018-08-24T02:48:35.155Z,0
2018-08-24T02:49:44.456Z,0
2018-08-24T02:50:54.307Z,0
2018-08-24T02:52:04.143Z,0
2018-08-24T02:53:13.988Z,0
2018-08-24T02:54:23.609Z,0
2018-08-24T02:55:33.452Z,0
2018-08-24T02:56:43.295Z,0
2018-08-24T02:57:53.163Z,0
2018-08-24T02:59:02.738Z,0
2018-08-24T03:00:12.586Z,0
2018-08-24T03:01:22.432Z,0
2018-08-24T03:02:32.564Z,0
2018-08-24T03:03:42.128Z,0
2018-08-24T03:04:51.965Z,0
2018-08-24T03:06:02.073Z,0
2018-08-24T03:07:11.379Z,0
2018-08-24T03:08:21.161Z,0
2018-08-24T03:09:31.005Z,0
2018-08-24T03:10:40.848Z,0
2018-08-24T03:11:50.694Z,0
2018-08-24T03:13:00.265Z,0
2018-08-24T03:14:09.618Z,0
2018-08-24T03:15:18.916Z,0
2018-08-24T03:16:29.540Z,0
2018-08-24T03:17:39.869Z,0
2018-08-24T03:18:49.985Z,0
2018-08-24T03:19:59.564Z,0
2018-08-24T03:21:08.859Z,0
2018-08-24T03:22:18.716Z,0
2018-08-24T03:23:28.552Z,0
2018-08-24T03:24:38.662Z,0
2018-08-24T03:25:48.499Z,0
2018-08-24T03:26:58.342Z,0
2018-08-24T03:28:07.909Z,0
2018-08-24T03:29:17.478Z,0
2018-08-24T03:30:27.607Z,0
2018-08-24T03:31:37.452Z,0
2018-08-24T03:32:47.020Z,0
2018-08-24T03:33:56.597Z,0
2018-08-24T03:35:05.894Z,0
2018-08-24T03:36:15.460Z,0
2018-08-24T03:37:25.027Z,0
2018-08-24T03:38:34.602Z,0
2018-08-24T03:39:44.167Z,0
2018-08-24T03:40:54.001Z,0
2018-08-24T03:42:03.837Z,0
2018-08-24T03:43:13.156Z,0
2018-08-24T03:44:22.721Z,0
2018-08-24T03:45:32.569Z,0
2018-08-24T03:46:41.867Z,0
2018-08-24T03:47:51.434Z,0
2018-08-24T03:49:00.735Z,0
2018-08-24T03:50:10.575Z,0
2018-08-24T03:51:20.686Z,4
2018-08-24T03:52:30.525Z,4
2018-08-24T03:53:40.635Z,0
2018-08-24T03:54:50.226Z,4
2018-08-24T03:55:59.790Z,4
2018-08-24T03:57:08.819Z,4
2018-08-24T03:58:18.930Z,8
2018-08-24T03:59:28.231Z,8
2018-08-24T04:00:38.072Z,8
2018-08-24T04:01:47.643Z,16
2018-08-24T04:02:57.487Z,16
2018-08-24T04:04:07.377Z,16
2018-08-24T04:05:17.222Z,20
2018-08-24T04:06:27.065Z,24
2018-08-24T04:07:36.630Z,24
2018-08-24T04:08:46.467Z,32
2018-08-24T04:09:56.635Z,36
2018-08-24T04:11:06.201Z,40
2018-08-24T04:12:16.300Z,44
2018-08-24T04:13:25.871Z,48
2018-08-24T04:14:35.711Z,56
2018-08-24T04:15:45.281Z,64
2018-08-24T04:16:54.902Z,68
2018-08-24T04:18:04.765Z,72
2018-08-24T04:19:14.339Z,76
2018-08-24T04:20:24.248Z,84
2018-08-24T04:21:33.833Z,92
2018-08-24T04:22:43.678Z,100
2018-08-24T04:23:52.980Z,116
2018-08-24T04:25:03.100Z,132
2018-08-24T04:26:13.328Z,148
2018-08-24T04:27:23.222Z,168
2018-08-24T04:28:33.059Z,192
2018-08-24T04:29:42.895Z,228
2018-08-24T04:30:52.737Z,264
2018-08-24T04:32:02.571Z,304
2018-08-24T04:33:12.678Z,344
2018-08-24T04:34:21.978Z,388
2018-08-24T04:35:31.864Z,448
2018-08-24T04:36:41.982Z,508
2018-08-24T04:37:51.567Z,560
2018-08-24T04:39:01.405Z,596
2018-08-24T04:40:11.078Z,620
2018-08-24T04:41:20.950Z,656
2018-08-24T04:42:30.828Z,692
2018-08-24T04:43:40.407Z,720
2018-08-24T04:44:50.258Z,740
2018-08-24T04:46:00.190Z,768
2018-08-24T04:47:09.223Z,800
2018-08-24T04:48:19.061Z,876
2018-08-24T04:49:28.634Z,992
2018-08-24T04:50:38.532Z,1112
2018-08-24T04:51:48.112Z,1224
2018-08-24T04:52:57.691Z,1352
2018-08-24T04:54:07.252Z,1424
2018-08-24T04:55:16.299Z,1468
2018-08-24T04:56:26.137Z,1480
2018-08-24T04:57:35.168Z,1492
2018-08-24T04:58:44.468Z,1508
2018-08-24T04:59:54.581Z,1540
2018-08-24T05:01:04.424Z,1584
2018-08-24T05:02:14.273Z,1604
2018-08-24T05:03:24.382Z,1628
2018-08-24T05:04:33.685Z,1656
2018-08-24T05:05:43.659Z,1688
2018-08-24T05:06:53.646Z,1728
2018-08-24T05:08:03.768Z,1796
2018-08-24T05:09:13.608Z,1884
2018-08-24T05:10:23.740Z,1972
2018-08-24T05:11:33.308Z,2080
2018-08-24T05:12:43.151Z,2140
2018-08-24T05:13:52.719Z,2180
2018-08-24T05:15:01.771Z,2224
2018-08-24T05:16:11.618Z,2248
2018-08-24T05:17:21.727Z,2248
2018-08-24T05:18:31.893Z,2248
2018-08-24T05:19:41.731Z,2256
2018-08-24T05:20:51.034Z,2236
2018-08-24T05:22:00.334Z,2228
2018-08-24T05:23:09.904Z,2256
2018-08-24T05:24:19.474Z,2300
2018-08-24T05:25:29.051Z,2320
2018-08-24T05:26:38.896Z,2296
2018-08-24T05:27:49.005Z,2224
2018-08-24T05:28:58.579Z,2136
2018-08-24T05:30:07.878Z,2112
2018-08-24T05:31:17.739Z,2120
2018-08-24T05:32:27.586Z,2148
2018-08-24T05:33:37.436Z,2200
2018-08-24T05:34:47.542Z,2252
2018-08-24T05:35:57.384Z,2308
2018-08-24T05:37:07.494Z,2356
2018-08-24T05:38:17.342Z,2388
2018-08-24T05:39:26.916Z,2344
2018-08-24T05:40:36.213Z,2252
2018-08-24T05:41:46.056Z,2172
2018-08-24T05:42:55.896Z,2152
2018-08-24T05:44:05.746Z,2172
2018-08-24T05:45:15.589Z,2192
2018-08-24T05:46:25.432Z,2228
2018-08-24T05:47:35.001Z,2276
2018-08-24T05:48:45.217Z,2340
2018-08-24T05:49:55.238Z,2400
2018-08-24T05:51:05.087Z,2460
2018-08-24T05:52:14.385Z,2532
2018-08-24T05:53:23.960Z,2596
2018-08-24T05:54:33.797Z,2664
2018-08-24T05:55:43.335Z,2708
2018-08-24T05:56:53.514Z,2704
2018-08-24T05:58:03.094Z,2652
2018-08-24T05:59:12.984Z,2576
2018-08-24T06:00:22.280Z,2540
2018-08-24T06:01:32.391Z,2552
2018-08-24T06:02:41.967Z,2572
2018-08-24T06:03:50.995Z,2560
2018-08-24T06:05:00.622Z,2516
2018-08-24T06:06:10.481Z,2464
2018-08-24T06:07:20.327Z,2444
2018-08-24T06:08:29.905Z,2448
2018-08-24T06:09:39.747Z,2480
2018-08-24T06:10:49.331Z,2576
2018-08-24T06:11:59.495Z,2788
2018-08-24T06:13:09.345Z,3108
2018-08-24T06:14:18.916Z,3492
2018-08-24T06:15:28.496Z,3812
2018-08-24T06:16:38.075Z,3968
2018-08-24T06:17:47.635Z,3992
2018-08-24T06:18:56.931Z,3944
2018-08-24T06:20:06.233Z,3892
2018-08-24T06:21:16.080Z,3856
2018-08-24T06:22:25.668Z,3716
2018-08-24T06:23:35.779Z,3488
2018-08-24T06:24:46.071Z,3292
2018-08-24T06:25:56.176Z,3140
2018-08-24T06:27:05.478Z,2992
2018-08-24T06:28:15.317Z,3028
2018-08-24T06:29:25.160Z,3328
2018-08-24T06:30:35.015Z,3732
2018-08-24T06:31:44.861Z,3956
2018-08-24T06:32:54.746Z,4076
2018-08-24T06:34:04.707Z,4220
2018-08-24T06:35:14.549Z,4320
2018-08-24T06:36:24.672Z,4360
2018-08-24T06:37:34.520Z,4296
2018-08-24T06:38:44.356Z,4200
2018-08-24T06:39:54.205Z,4100
2018-08-24T06:41:03.789Z,4000
2018-08-24T06:42:13.364Z,3868
2018-08-24T06:43:22.390Z,3788
2018-08-24T06:44:32.232Z,3864
2018-08-24T06:45:41.804Z,3956
2018-08-24T06:46:51.640Z,4004
2018-08-24T06:48:01.204Z,4180
2018-08-24T06:49:11.308Z,4592
2018-08-24T06:50:20.880Z,4980
2018-08-24T06:51:30.764Z,5108
2018-08-24T06:52:40.874Z,4916
2018-08-24T06:53:51.463Z,4744
2018-08-24T06:55:01.774Z,4784
2018-08-24T06:56:11.623Z,4580
2018-08-24T06:57:21.458Z,4380
2018-08-24T06:58:31.337Z,4504
2018-08-24T06:59:41.482Z,4984
2018-08-24T07:00:51.538Z,5444
2018-08-24T07:02:01.375Z,6248
2018-08-24T07:03:10.993Z,6856
2018-08-24T07:04:20.557Z,7300
2018-08-24T07:05:30.402Z,7716
2018-08-24T07:06:40.252Z,7948
2018-08-24T07:07:50.095Z,8136
2018-08-24T07:08:59.664Z,8136
2018-08-24T07:10:08.987Z,7976
2018-08-24T07:11:18.862Z,7776
2018-08-24T07:12:28.971Z,7640
2018-08-24T07:13:38.841Z,7456
2018-08-24T07:14:48.412Z,7256
2018-08-24T07:15:58.254Z,7028
2018-08-24T07:17:07.560Z,6768
2018-08-24T07:18:17.398Z,6476
2018-08-24T07:19:26.972Z,6376
2018-08-24T07:20:37.089Z,6492
2018-08-24T07:21:46.389Z,6576
2018-08-24T07:22:56.229Z,6512
2018-08-24T07:24:06.068Z,6424
2018-08-24T07:25:16.588Z,6424
2018-08-24T07:26:26.678Z,6480
2018-08-24T07:27:36.529Z,6552
2018-08-24T07:28:46.692Z,6664
2018-08-24T07:29:56.533Z,6796
2018-08-24T07:31:06.372Z,6976
2018-08-24T07:32:15.943Z,7332
2018-08-24T07:33:25.513Z,7860
2018-08-24T07:34:35.090Z,8364
2018-08-24T07:35:44.928Z,8580
2018-08-24T07:36:54.510Z,8428
2018-08-24T07:38:04.350Z,8108
2018-08-24T07:39:14.186Z,7856
2018-08-24T07:40:24.023Z,7708
2018-08-24T07:41:34.683Z,7496
2018-08-24T07:42:44.988Z,6452
2018-08-24T07:43:55.154Z,5376
2018-08-24T07:45:04.464Z,4480
2018-08-24T07:46:13.766Z,3968
2018-08-24T07:47:23.606Z,4048
2018-08-24T07:48:33.180Z,3648
2018-08-24T07:49:42.483Z,3340
2018-08-24T07:50:52.629Z,3264
2018-08-24T07:52:02.492Z,3320
2018-08-24T07:53:11.792Z,2876
2018-08-24T07:54:21.900Z,2912
2018-08-24T07:55:31.544Z,3012
2018-08-24T07:56:41.174Z,2796
2018-08-24T07:57:51.066Z,2648
2018-08-24T07:59:00.636Z,3064
2018-08-24T08:00:10.210Z,3372
2018-08-24T08:01:19.829Z,3828
2018-08-24T08:02:29.937Z,3988
2018-08-24T08:03:39.513Z,3972
2018-08-24T08:04:49.089Z,3964
2018-08-24T08:05:58.930Z,3960
2018-08-24T08:07:09.036Z,3628
2018-08-24T08:08:18.880Z,3192
2018-08-24T08:09:28.453Z,2752
2018-08-24T08:10:38.294Z,2556
2018-08-24T08:11:47.593Z,2228
2018-08-24T08:12:57.431Z,2308
2018-08-24T08:14:07.550Z,2552
2018-08-24T08:15:17.422Z,2868
2018-08-24T08:16:26.995Z,3452
2018-08-24T08:17:36.583Z,3360
2018-08-24T08:18:46.738Z,2800
2018-08-24T08:19:56.732Z,2084
2018-08-24T08:21:06.634Z,2292
2018-08-24T08:22:16.524Z,3884
2018-08-24T08:23:25.555Z,3748
2018-08-24T08:24:35.514Z,3544
2018-08-24T08:25:45.093Z,2540
2018-08-24T08:26:54.933Z,3936
2018-08-24T08:28:04.776Z,4100
2018-08-24T08:29:14.079Z,5564
2018-08-24T08:30:23.938Z,6364
2018-08-24T08:31:34.052Z,5520
2018-08-24T08:32:43.367Z,5204
2018-08-24T08:33:52.949Z,6020
2018-08-24T08:35:02.525Z,4928
2018-08-24T08:36:11.829Z,4284
2018-08-24T08:37:21.418Z,4664
2018-08-24T08:38:31.534Z,4120
2018-08-24T08:39:41.374Z,4052
2018-08-24T08:40:50.947Z,3624
2018-08-24T08:42:00.806Z,3664
2018-08-24T08:43:10.375Z,4488
2018-08-24T08:44:19.949Z,5476
2018-08-24T08:45:30.095Z,6400
2018-08-24T08:46:39.695Z,6448
2018-08-24T08:47:49.265Z,6152
2018-08-24T08:48:59.374Z,6272
2018-08-24T08:50:08.681Z,5584
2018-08-24T08:51:18.520Z,4016
2018-08-24T08:52:28.094Z,4728
2018-08-24T08:53:38.656Z,5128
2018-08-24T08:54:47.965Z,5084
2018-08-24T08:55:57.263Z,5836
2018-08-24T08:57:07.100Z,5372
2018-08-24T08:58:16.938Z,6688
2018-08-24T08:59:27.097Z,7324
2018-08-24T09:00:37.213Z,6456
2018-08-24T09:01:46.788Z,8332
2018-08-24T09:02:56.897Z,6568
2018-08-24T09:04:06.474Z,6156
2018-08-24T09:05:16.313Z,5268
2018-08-24T09:06:26.674Z,3872
2018-08-24T09:07:36.660Z,3580
2018-08-24T09:08:46.508Z,3732
2018-08-24T09:09:56.083Z,3856
2018-08-24T09:11:05.663Z,4280
2018-08-24T09:12:15.785Z,5084
2018-08-24T09:13:25.354Z,7912
2018-08-24T09:14:35.499Z,8988
2018-08-24T09:15:45.352Z,10432
2018-08-24T09:16:55.191Z,9004
2018-08-24T09:18:04.757Z,7668
2018-08-24T09:19:14.602Z,6348
2018-08-24T09:20:24.454Z,5868
2018-08-24T09:21:34.024Z,7180
2018-08-24T09:22:43.597Z,8236
2018-08-24T09:23:53.442Z,8884
2018-08-24T09:25:03.278Z,5052
2018-08-24T09:26:13.128Z,5680
2018-08-24T09:27:23.244Z,6204
2018-08-24T09:28:33.133Z,7456
2018-08-24T09:29:43.261Z,4380
2018-08-24T09:30:53.107Z,4424
2018-08-24T09:32:02.685Z,4676
2018-08-24T09:33:12.533Z,5028
2018-08-24T09:34:22.152Z,4724
2018-08-24T09:35:31.990Z,4932
2018-08-24T09:36:41.835Z,6044
2018-08-24T09:37:52.035Z,6008
2018-08-24T09:39:01.879Z,6728
2018-08-24T09:40:11.726Z,7936
2018-08-24T09:41:21.297Z,9160
2018-08-24T09:42:31.137Z,6688
2018-08-24T09:43:40.435Z,8396
2018-08-24T09:44:50.283Z,10400
2018-08-24T09:45:59.585Z,9840
2018-08-24T09:47:09.434Z,8592
2018-08-24T09:48:19.008Z,7868
2018-08-24T09:49:28.852Z,7688
2018-08-24T09:50:38.686Z,11500
2018-08-24T09:51:48.038Z,13892
2018-08-24T09:52:57.615Z,14064
2018-08-24T09:54:07.725Z,11392
2018-08-24T09:55:17.568Z,6300
2018-08-24T09:56:27.135Z,5244
2018-08-24T09:57:37.030Z,4412
2018-08-24T09:58:46.602Z,5008
2018-08-24T09:59:56.448Z,5220
2018-08-24T10:01:06.561Z,6336
2018-08-24T10:02:15.863Z,8004
2018-08-24T10:03:25.996Z,7992
2018-08-24T10:04:35.568Z,6252
2018-08-24T10:05:44.869Z,7176
2018-08-24T10:06:54.744Z,8172
2018-08-24T10:08:04.855Z,10112
2018-08-24T10:09:14.759Z,12616
2018-08-24T10:10:24.620Z,11032
2018-08-24T10:11:34.466Z,10100
2018-08-24T10:12:43.859Z,11208
2018-08-24T10:13:53.717Z,14856
2018-08-24T10:15:03.845Z,13508
2018-08-24T10:16:13.687Z,12484
2018-08-24T10:17:23.264Z,13052
2018-08-24T10:18:33.109Z,13796
2018-08-24T10:19:42.684Z,11576
2018-08-24T10:20:52.803Z,9352
2018-08-24T10:22:02.647Z,10944
2018-08-24T10:23:12.170Z,8468
2018-08-24T10:24:21.997Z,7468
2018-08-24T10:25:31.839Z,7668
2018-08-24T10:26:41.955Z,6400
2018-08-24T10:27:52.380Z,7172
2018-08-24T10:29:02.490Z,8120
2018-08-24T10:30:12.619Z,10432
2018-08-24T10:31:22.465Z,11904
2018-08-24T10:32:32.600Z,10592
2018-08-24T10:33:42.863Z,9084
2018-08-24T10:34:52.896Z,8108
2018-08-24T10:36:02.474Z,7204
2018-08-24T10:37:11.782Z,4736
2018-08-24T10:38:21.637Z,4456
2018-08-24T10:39:31.753Z,4016
2018-08-24T10:40:41.950Z,3912
2018-08-24T10:41:51.539Z,3612
2018-08-24T10:43:01.382Z,3768
2018-08-24T10:44:10.687Z,4544
2018-08-24T10:45:20.002Z,4700
2018-08-24T10:46:29.580Z,5016
2018-08-24T10:47:39.472Z,5268
2018-08-24T10:48:49.074Z,5756
2018-08-24T10:49:58.928Z,7000
2018-08-24T10:51:08.269Z,8336
2018-08-24T10:52:17.604Z,10468
2018-08-24T10:53:27.189Z,11384
2018-08-24T10:54:37.033Z,11292
2018-08-24T10:55:47.339Z,8992
2018-08-24T10:56:57.749Z,7560
2018-08-24T10:58:07.349Z,7536
2018-08-24T10:59:17.195Z,4576
2018-08-24T11:00:26.500Z,4772
2018-08-24T11:01:35.794Z,4900
2018-08-24T11:02:45.654Z,4432
2018-08-24T11:03:55.229Z,4776
2018-08-24T11:05:05.344Z,4932
2018-08-24T11:06:15.184Z,5204
2018-08-24T11:07:25.294Z,5688
2018-08-24T11:08:34.679Z,6052
2018-08-24T11:09:44.248Z,7188
2018-08-24T11:10:54.091Z,8268
2018-08-24T11:12:03.926Z,8292
2018-08-24T11:13:13.764Z,7096
2018-08-24T11:14:23.599Z,7968
2018-08-24T11:15:33.173Z,8428
2018-08-24T11:16:43.431Z,7656
2018-08-24T11:17:53.641Z,6868
2018-08-24T11:19:02.994Z,7024
2018-08-24T11:20:12.574Z,7012
2018-08-24T11:21:22.153Z,6332
2018-08-24T11:22:31.733Z,6444
2018-08-24T11:23:41.844Z,5976
2018-08-24T11:24:51.428Z,6152
2018-08-24T11:26:01.307Z,6400
2018-08-24T11:27:10.890Z,6844
2018-08-24T11:28:20.471Z,6488
2018-08-24T11:29:30.267Z,5712
2018-08-24T11:30:40.112Z,6312
2018-08-24T11:31:49.687Z,6408
2018-08-24T11:32:59.534Z,6608
2018-08-24T11:34:09.619Z,6816
2018-08-24T11:35:19.316Z,7260
2018-08-24T11:36:29.643Z,6924
2018-08-24T11:37:39.251Z,6792
2018-08-24T11:38:49.091Z,7152
2018-08-24T11:39:58.957Z,7184
2018-08-24T11:41:08.532Z,7560
2018-08-24T11:42:18.222Z,8396
2018-08-24T11:43:28.451Z,9916
2018-08-24T11:44:37.487Z,11440
2018-08-24T11:45:47.113Z,13128
2018-08-24T11:46:56.427Z,13388
2018-08-24T11:48:06.497Z,12456
2018-08-24T11:49:16.626Z,10904
2018-08-24T11:50:26.738Z,10532
2018-08-24T11:51:36.367Z,10684
2018-08-24T11:52:45.954Z,11204
2018-08-24T11:53:55.585Z,12032
2018-08-24T11:55:05.233Z,12996
2018-08-24T11:56:15.351Z,12988
2018-08-24T11:57:25.199Z,12156
2018-08-24T11:58:34.509Z,14008
2018-08-24T11:59:44.880Z,12036
2018-08-24T12:00:54.866Z,11804
2018-08-24T12:02:05.077Z,8640
2018-08-24T12:03:15.024Z,5912
2018-08-24T12:04:24.873Z,6048
2018-08-24T12:05:34.456Z,8340
2018-08-24T12:06:44.035Z,12568
2018-08-24T12:07:54.135Z,23776
2018-08-24T12:09:04.473Z,19296
2018-08-24T12:10:13.529Z,14516
2018-08-24T12:11:23.105Z,12996
2018-08-24T12:12:33.307Z,31456
2018-08-24T12:13:43.251Z,27264
2018-08-24T12:14:52.576Z,29216
2018-08-24T12:16:02.437Z,25600
2018-08-24T12:17:11.474Z,19776
2018-08-24T12:18:21.530Z,43168
2018-08-24T12:19:31.145Z,35712
2018-08-24T12:20:40.993Z,15728
2018-08-24T12:21:51.263Z,11000
2018-08-24T12:23:01.156Z,11764
2018-08-24T12:24:11.001Z,25344
2018-08-24T12:25:20.851Z,25088
2018-08-24T12:26:30.967Z,20352
2018-08-24T12:27:40.810Z,13408
2018-08-24T12:28:50.382Z,9644
2018-08-24T12:30:00.232Z,10052
2018-08-24T12:31:09.703Z,11572
2018-08-24T12:32:19.831Z,21152
2018-08-24T12:33:29.447Z,37440
2018-08-24T12:34:38.826Z,54112
2018-08-24T12:35:48.478Z,51552
2018-08-24T12:36:58.324Z,48320
2018-08-24T12:38:08.291Z,44096
2018-08-24T12:39:17.899Z,13856
2018-08-24T12:40:27.745Z,12900
2018-08-24T12:41:37.589Z,17952
2018-08-24T12:42:47.170Z,25728
2018-08-24T12:43:56.749Z,42560
2018-08-24T12:45:06.330Z,42432
2018-08-24T12:46:16.177Z,35264
2018-08-24T12:47:26.033Z,20416
2018-08-24T12:48:35.077Z,16024
2018-08-24T12:49:44.647Z,14416
2018-08-24T12:50:54.502Z,10716
2018-08-24T12:52:04.495Z,8364
2018-08-24T12:53:14.176Z,8088
2018-08-24T12:54:24.022Z,6156
2018-08-24T12:55:34.146Z,4852
2018-08-24T12:56:44.268Z,3228
2018-08-24T12:57:54.383Z,2336
2018-08-24T12:59:04.235Z,1952
2018-08-24T13:00:13.543Z,1648
2018-08-24T13:01:23.677Z,2240
2018-08-24T13:02:32.988Z,3140
2018-08-24T13:03:43.155Z,3920
2018-08-24T13:04:52.731Z,4696
2018-08-24T13:06:01.764Z,5352
2018-08-24T13:07:11.347Z,6152
2018-08-24T13:08:21.459Z,6864
2018-08-24T13:09:31.050Z,7824
2018-08-24T13:10:40.094Z,8972
2018-08-24T13:11:49.945Z,10584
2018-08-24T13:12:59.516Z,12724
2018-08-24T13:14:08.550Z,15412
2018-08-24T13:15:18.366Z,18816
2018-08-24T13:16:28.523Z,22432
2018-08-24T13:17:38.097Z,24992
2018-08-24T13:18:47.946Z,25408
2018-08-24T13:19:57.520Z,27904
2018-08-24T13:21:06.554Z,24896
2018-08-24T13:22:16.399Z,24576
2018-08-24T13:23:26.243Z,25888
2018-08-24T13:24:35.279Z,25120
2018-08-24T13:25:44.859Z,20576
2018-08-24T13:26:54.716Z,19776
2018-08-24T13:28:05.274Z,20640
2018-08-24T13:29:15.380Z,19136
2018-08-24T13:30:24.957Z,19904
2018-08-24T13:31:34.540Z,19072
2018-08-24T13:32:44.116Z,18368
2018-08-24T13:33:53.426Z,19520
2018-08-24T13:35:02.786Z,18816
2018-08-24T13:36:12.645Z,18688
2018-08-24T13:37:22.487Z,20160
2018-08-24T13:38:32.326Z,20800
2018-08-24T13:39:42.439Z,19520
2018-08-24T13:40:51.743Z,18016
2018-08-24T13:42:01.629Z,15692
2018-08-24T13:43:11.522Z,15252
2018-08-24T13:44:21.094Z,17216
2018-08-24T13:45:30.128Z,31744
2018-08-24T13:46:39.711Z,31136
2018-08-24T13:47:49.556Z,39136
2018-08-24T13:48:59.130Z,53312
2018-08-24T13:50:08.717Z,47488
2018-08-24T13:51:17.748Z,35968
2018-08-24T13:52:27.061Z,30944
2018-08-24T13:53:37.171Z,35872
2018-08-24T13:54:47.407Z,43424
2018-08-24T13:55:57.851Z,42816
2018-08-24T13:57:07.721Z,39712
2018-08-24T13:58:17.302Z,46400
2018-08-24T13:59:27.071Z,71488
2018-08-24T14:00:37.234Z,57536
2018-08-24T14:01:46.813Z,42816
2018-08-24T14:02:56.943Z,76320
2018-08-24T14:04:06.789Z,78432
2018-08-24T14:05:16.464Z,76896
2018-08-24T14:06:26.051Z,18016
2018-08-24T14:07:35.640Z,11192
2018-08-24T14:08:44.946Z,10252
2018-08-24T14:09:54.519Z,6692
2018-08-24T14:11:04.364Z,6960
2018-08-24T14:12:14.210Z,10176
2018-08-24T14:13:24.203Z,14528
2018-08-24T14:14:33.541Z,26688
2018-08-24T14:15:43.124Z,20672
2018-08-24T14:16:52.713Z,15660
2018-08-24T14:18:02.292Z,15912
2018-08-24T14:19:11.871Z,18144
2018-08-24T14:20:21.186Z,18656
2018-08-24T14:21:31.040Z,22176
2018-08-24T14:22:40.612Z,91392
2018-08-24T14:23:50.508Z,85472
2018-08-24T14:25:00.353Z,82784
2018-08-24T14:26:10.206Z,77280
2018-08-24T14:27:20.061Z,76288
2018-08-24T14:28:29.367Z,78240
2018-08-24T14:29:38.956Z,16852
2018-08-24T14:30:48.542Z,40416
2018-08-24T14:31:58.684Z,70688
2018-08-24T14:33:08.550Z,11656
2018-08-24T14:34:17.862Z,17152
2018-08-24T14:35:27.438Z,79136
2018-08-24T14:36:37.016Z,70848
2018-08-24T14:37:47.133Z,10700
2018-08-24T14:38:56.718Z,67296
2018-08-24T14:40:06.300Z,71968
2018-08-24T14:41:16.175Z,71584
2018-08-24T14:42:26.030Z,61248
2018-08-24T14:43:35.888Z,7996
2018-08-24T14:44:45.747Z,7568
2018-08-24T14:45:55.606Z,9216
2018-08-24T14:47:05.457Z,12872
2018-08-24T14:48:15.244Z,9820
2018-08-24T14:49:25.335Z,10280
2018-08-24T14:50:35.185Z,15248
2018-08-24T14:51:45.046Z,77504
2018-08-24T14:52:54.903Z,73888
2018-08-24T14:54:04.481Z,78016
2018-08-24T14:55:14.338Z,74720
2018-08-24T14:56:23.918Z,67360
2018-08-24T14:57:34.055Z,19392
2018-08-24T14:58:44.270Z,12544
2018-08-24T14:59:53.855Z,10196
2018-08-24T15:01:03.711Z,9860
2018-08-24T15:02:13.072Z,9304
2018-08-24T15:03:22.937Z,9432
2018-08-24T15:04:33.172Z,8952
2018-08-24T15:05:43.245Z,8708
2018-08-24T15:06:52.551Z,8540
2018-08-24T15:08:02.403Z,7804
2018-08-24T15:09:11.984Z,7360
2018-08-24T15:10:21.298Z,7144
2018-08-24T15:11:31.420Z,6884
2018-08-24T15:12:40.996Z,6552
2018-08-24T15:13:50.839Z,5832
2018-08-24T15:15:00.972Z,5136
2018-08-24T15:16:11.106Z,5188
2018-08-24T15:17:20.412Z,5920
2018-08-24T15:18:29.983Z,7604
2018-08-24T15:19:39.287Z,9240
2018-08-24T15:20:49.412Z,10576
2018-08-24T15:21:58.989Z,20480
2018-08-24T15:23:08.631Z,18432
2018-08-24T15:24:18.260Z,31200
2018-08-24T15:25:28.107Z,31584
2018-08-24T15:26:37.984Z,32672
2018-08-24T15:27:47.829Z,34816
2018-08-24T15:28:57.680Z,23904
2018-08-24T15:30:07.456Z,28800
2018-08-24T15:31:17.029Z,27744
2018-08-24T15:32:26.607Z,26208
2018-08-24T15:33:36.189Z,28224
2018-08-24T15:34:45.763Z,27520
2018-08-24T15:35:55.344Z,25984
2018-08-24T15:37:05.199Z,24672
2018-08-24T15:38:14.780Z,24672
2018-08-24T15:39:24.134Z,20736
2018-08-24T15:40:33.984Z,18048
2018-08-24T15:41:43.564Z,23616
2018-08-24T15:42:53.687Z,22272
2018-08-24T15:44:03.000Z,23456
2018-08-24T15:45:12.044Z,24832
2018-08-24T15:46:21.824Z,17728
2018-08-24T15:47:31.707Z,20352